No particular awareness of the weather is required.    There are no Weather-warnings


Meteo18 Weather Cam more information Meteo18 Weather Cam


Thunder radar more information blitzortung!


Rain radar more information rain snow radar


Visit our other weather sites:

Template documentation
and downloads

And another site



Weather Underground History page Text

Daily Summary for March 29, 2017 Units:  Both    English   Metric
« Previous Day
Next Day »
Daily Weekly Monthly Yearly Custom
  High: Low: Average:
Temperature: TemperatureC °F /  -17.8 °C 4.8 °F /  -15.1 °C 12.7 °F /  -10.7 °C
Dew Point: DewpointC °F /  -17.8 °C 4.1 °F /  -15.5 °C 6.9 °F /  -13.9 °C
Humidity: Humidity % 40 % 70 %
Wind Speed: WindSpeedKMH mph /  0 km/h - 1.2 mph /  1.9 km/h
Wind Gust: WindSpeedGustKMH mph /  0 km/h - -
Wind:- - SW
Pressure: PressurehPa in /  0 hPa 1026.0 in /  34740.4 hPa -
Precipitation: 0.0 in /  0 mm    
Historical Graphs
 
 
Tabular Data for March 29, 2017
Time Temperature Dew Point Pressure Wind Wind Speed Wind Gust Humidity Rainfall Rate (Hourly)
TemperatureC °F /  -17.8 °C DewpointC °F /  -17.8 °C PressurehPa in /  0 hPa Calm     Humidity % HourlyPrecipMM in /  0 mm
00:02 10.3 °F /  -12.1 °C 7.2 °F /  -13.8 °C 1028.0 in /  34808.1 hPa Calm   1.6 mph /  2.6 km/h 81 % 0.0 in /  0 mm
00:12 10.3 °F /  -12.1 °C 7.0 °F /  -13.9 °C 1028.3 in /  34818.2 hPa Calm   1.6 mph /  2.6 km/h 80 % 0.0 in /  0 mm
00:17 10.1 °F /  -12.2 °C 6.8 °F /  -14 °C 1028.3 in /  34818.2 hPa Calm     80 % 0.0 in /  0 mm
00:22 9.9 °F /  -12.3 °C 6.6 °F /  -14.1 °C 1028.3 in /  34818.2 hPa Calm     80 % 0.0 in /  0 mm
00:32 9.5 °F /  -12.5 °C 6.6 °F /  -14.1 °C 1028.3 in /  34818.2 hPa Calm     82 % 0.0 in /  0 mm
00:42 9.4 °F /  -12.6 °C 6.7 °F /  -14.1 °C 1028.7 in /  34831.8 hPa Calm     83 % 0.0 in /  0 mm
00:47 9.3 °F /  -12.6 °C 6.7 °F /  -14.1 °C 1028.3 in /  34818.2 hPa Calm     84 % 0.0 in /  0 mm
00:52 9.4 °F /  -12.6 °C 6.8 °F /  -14 °C 1028.3 in /  34818.2 hPa Calm     84 % 0.0 in /  0 mm
00:59 9.4 °F /  -12.6 °C 6.7 °F /  -14.1 °C 1028.7 in /  34831.8 hPa Calm     83 % 0.0 in /  0 mm
01:07 9.6 °F /  -12.4 °C 6.9 °F /  -13.9 °C 1028.7 in /  34831.8 hPa Calm   1.6 mph /  2.6 km/h 83 % 0.0 in /  0 mm
01:12 9.5 °F /  -12.5 °C 6.6 °F /  -14.1 °C 1028.7 in /  34831.8 hPa Calm   1.6 mph /  2.6 km/h 82 % 0.0 in /  0 mm
01:17 9.2 °F /  -12.7 °C 6.3 °F /  -14.3 °C 1028.7 in /  34831.8 hPa Calm   1.6 mph /  2.6 km/h 82 % 0.0 in /  0 mm
01:22 9.1 °F /  -12.7 °C 6.5 °F /  -14.2 °C 1028.3 in /  34818.2 hPa Calm     84 % 0.0 in /  0 mm
01:32 9.3 °F /  -12.6 °C 6.7 °F /  -14.1 °C 1028.3 in /  34818.2 hPa Calm     84 % 0.0 in /  0 mm
01:42 9.2 °F /  -12.7 °C 6.5 °F /  -14.2 °C 1028.3 in /  34818.2 hPa Calm     83 % 0.0 in /  0 mm
01:47 8.9 °F /  -12.8 °C 6.2 °F /  -14.3 °C 1028.3 in /  34818.2 hPa Calm     83 % 0.0 in /  0 mm
01:52 8.8 °F /  -12.9 °C 6.2 °F /  -14.3 °C 1028.3 in /  34818.2 hPa Calm     84 % 0.0 in /  0 mm
01:57 8.6 °F /  -13 °C 6.2 °F /  -14.3 °C 1028.3 in /  34818.2 hPa Calm     85 % 0.0 in /  0 mm
02:02 8.4 °F /  -13.1 °C 6.0 °F /  -14.4 °C 1028.3 in /  34818.2 hPa Calm     85 % 0.0 in /  0 mm
02:07 8.4 °F /  -13.1 °C 6.2 °F /  -14.3 °C 1028.3 in /  34818.2 hPa Calm     86 % 0.0 in /  0 mm
02:12 8.2 °F /  -13.2 °C 6.0 °F /  -14.4 °C 1028.3 in /  34818.2 hPa Calm     86 % 0.0 in /  0 mm
02:17 8.1 °F /  -13.3 °C 6.1 °F /  -14.4 °C 1028.3 in /  34818.2 hPa Calm     87 % 0.0 in /  0 mm
02:22 8.2 °F /  -13.2 °C 6.3 °F /  -14.3 °C 1028.3 in /  34818.2 hPa Calm     88 % 0.0 in /  0 mm
02:32 8.3 °F /  -13.2 °C 6.3 °F /  -14.3 °C 1028.3 in /  34818.2 hPa Calm     87 % 0.0 in /  0 mm
02:42 7.9 °F /  -13.4 °C 6.0 °F /  -14.4 °C 1028.3 in /  34818.2 hPa Calm     88 % 0.0 in /  0 mm
02:52 8.1 °F /  -13.3 °C 6.4 °F /  -14.2 °C 1028.3 in /  34818.2 hPa Calm     89 % 0.0 in /  0 mm
02:57 8.3 °F /  -13.2 °C 6.4 °F /  -14.2 °C 1028.3 in /  34818.2 hPa Calm     88 % 0.0 in /  0 mm
03:02 8.4 °F /  -13.1 °C 6.5 °F /  -14.2 °C 1028.3 in /  34818.2 hPa Calm     88 % 0.0 in /  0 mm
03:12 8.5 °F /  -13.1 °C 6.5 °F /  -14.2 °C 1028.3 in /  34818.2 hPa Calm     87 % 0.0 in /  0 mm
03:17 8.3 °F /  -13.2 °C 6.3 °F /  -14.3 °C 1028.3 in /  34818.2 hPa Calm     87 % 0.0 in /  0 mm
03:22 8.2 °F /  -13.2 °C 6.2 °F /  -14.3 °C 1028.3 in /  34818.2 hPa Calm     87 % 0.0 in /  0 mm
03:32 7.8 °F /  -13.4 °C 5.9 °F /  -14.5 °C 1028.3 in /  34818.2 hPa Calm     88 % 0.0 in /  0 mm
03:42 7.3 °F /  -13.7 °C 5.6 °F /  -14.7 °C 1028.3 in /  34818.2 hPa Calm     89 % 0.0 in /  0 mm
03:47 7.1 °F /  -13.8 °C 5.4 °F /  -14.8 °C 1028.3 in /  34818.2 hPa Calm     89 % 0.0 in /  0 mm
03:52 7.1 °F /  -13.8 °C 5.6 °F /  -14.7 °C 1028.3 in /  34818.2 hPa Calm     90 % 0.0 in /  0 mm
03:57 6.9 °F /  -13.9 °C 5.4 °F /  -14.8 °C 1028.3 in /  34818.2 hPa Calm     90 % 0.0 in /  0 mm
04:02 6.9 °F /  -13.9 °C 5.5 °F /  -14.7 °C 1028.3 in /  34818.2 hPa Calm     91 % 0.0 in /  0 mm
04:12 6.9 °F /  -13.9 °C 5.5 °F /  -14.7 °C 1028.0 in /  34808.1 hPa Calm     91 % 0.0 in /  0 mm
04:17 6.9 °F /  -13.9 °C 5.5 °F /  -14.7 °C 1028.0 in /  34808.1 hPa Calm     91 % 0.0 in /  0 mm
04:22 6.8 °F /  -14 °C 5.4 °F /  -14.8 °C 1028.0 in /  34808.1 hPa Calm     91 % 0.0 in /  0 mm
04:32 6.6 °F /  -14.1 °C 5.2 °F /  -14.9 °C 1028.3 in /  34818.2 hPa Calm     91 % 0.0 in /  0 mm
04:42 6.4 °F /  -14.2 °C 5.2 °F /  -14.9 °C 1028.3 in /  34818.2 hPa Calm     92 % 0.0 in /  0 mm
04:52 6.1 °F /  -14.4 °C 4.9 °F /  -15.1 °C 1028.3 in /  34818.2 hPa Calm     92 % 0.0 in /  0 mm
04:57 6.0 °F /  -14.4 °C 4.8 °F /  -15.1 °C 1028.3 in /  34818.2 hPa Calm     92 % 0.0 in /  0 mm
05:02 5.9 °F /  -14.5 °C 4.9 °F /  -15.1 °C 1028.3 in /  34818.2 hPa Calm     93 % 0.0 in /  0 mm
05:07 5.9 °F /  -14.5 °C 4.9 °F /  -15.1 °C 1028.3 in /  34818.2 hPa Calm     93 % 0.0 in /  0 mm
05:12 5.9 °F /  -14.5 °C 4.9 °F /  -15.1 °C 1028.3 in /  34818.2 hPa Calm     93 % 0.0 in /  0 mm
05:17 6.0 °F /  -14.4 °C 5.1 °F /  -14.9 °C 1028.3 in /  34818.2 hPa Calm     94 % 0.0 in /  0 mm
05:22 5.8 °F /  -14.6 °C 4.8 °F /  -15.1 °C 1028.3 in /  34818.2 hPa Calm     93 % 0.0 in /  0 mm
05:32 5.7 °F /  -14.6 °C 4.8 °F /  -15.1 °C 1028.3 in /  34818.2 hPa Calm   1.6 mph /  2.6 km/h 94 % 0.0 in /  0 mm
05:42 5.8 °F /  -14.6 °C 4.9 °F /  -15.1 °C 1028.3 in /  34818.2 hPa Calm   1.6 mph /  2.6 km/h 94 % 0.0 in /  0 mm
05:47 5.8 °F /  -14.6 °C 4.9 °F /  -15.1 °C 1028.3 in /  34818.2 hPa Calm     94 % 0.0 in /  0 mm
05:52 5.8 °F /  -14.6 °C 4.9 °F /  -15.1 °C 1028.3 in /  34818.2 hPa Calm     94 % 0.0 in /  0 mm
06:02 5.8 °F /  -14.6 °C 4.9 °F /  -15.1 °C 1028.3 in /  34818.2 hPa Calm   1.6 mph /  2.6 km/h 94 % 0.0 in /  0 mm
06:07 5.7 °F /  -14.6 °C 4.8 °F /  -15.1 °C 1028.3 in /  34818.2 hPa Calm   1.6 mph /  2.6 km/h 94 % 0.0 in /  0 mm
06:12 5.7 °F /  -14.6 °C 4.8 °F /  -15.1 °C 1028.3 in /  34818.2 hPa Calm   1.6 mph /  2.6 km/h 94 % 0.0 in /  0 mm
06:17 5.4 °F /  -14.8 °C 4.4 °F /  -15.3 °C 1028.3 in /  34818.2 hPa Calm   1.6 mph /  2.6 km/h 93 % 0.0 in /  0 mm
06:22 5.2 °F /  -14.9 °C 4.3 °F /  -15.4 °C 1028.3 in /  34818.2 hPa Calm   1.6 mph /  2.6 km/h 94 % 0.0 in /  0 mm
06:32 5.4 °F /  -14.8 °C 4.7 °F /  -15.2 °C 1028.3 in /  34818.2 hPa North 1.6 mph /  2.6 km/h 1.6 mph /  2.6 km/h 95 % 0.0 in /  0 mm
06:37 5.4 °F /  -14.8 °C 4.7 °F /  -15.2 °C 1028.3 in /  34818.2 hPa North 3.2 mph /  5.1 km/h 3.2 mph /  5.1 km/h 95 % 0.0 in /  0 mm
06:42 5.5 °F /  -14.7 °C 4.8 °F /  -15.1 °C 1028.3 in /  34818.2 hPa Calm   3.2 mph /  5.1 km/h 95 % 0.0 in /  0 mm
06:47 5.4 °F /  -14.8 °C 4.5 °F /  -15.3 °C 1028.3 in /  34818.2 hPa North 1.6 mph /  2.6 km/h 3.2 mph /  5.1 km/h 94 % 0.0 in /  0 mm
06:52 5.3 °F /  -14.8 °C 4.6 °F /  -15.2 °C 1028.3 in /  34818.2 hPa Calm   3.2 mph /  5.1 km/h 95 % 0.0 in /  0 mm
06:57 5.3 °F /  -14.8 °C 4.6 °F /  -15.2 °C 1028.3 in /  34818.2 hPa Calm   1.6 mph /  2.6 km/h 95 % 0.0 in /  0 mm
07:02 5.1 °F /  -14.9 °C 4.2 °F /  -15.4 °C 1028.3 in /  34818.2 hPa Calm   1.6 mph /  2.6 km/h 94 % 0.0 in /  0 mm
07:12 5.1 °F /  -14.9 °C 4.4 °F /  -15.3 °C 1028.3 in /  34818.2 hPa Calm     95 % 0.0 in /  0 mm
07:22 4.9 °F /  -15.1 °C 4.2 °F /  -15.4 °C 1028.7 in /  34831.8 hPa Calm     95 % 0.0 in /  0 mm
07:32 5.1 °F /  -14.9 °C 4.5 °F /  -15.3 °C 1028.7 in /  34831.8 hPa Calm     96 % 0.0 in /  0 mm
07:42 4.9 °F /  -15.1 °C 4.2 °F /  -15.4 °C 1028.7 in /  34831.8 hPa Calm     95 % 0.0 in /  0 mm
07:47 4.8 °F /  -15.1 °C 4.1 °F /  -15.5 °C 1028.7 in /  34831.8 hPa Calm     95 % 0.0 in /  0 mm
07:52 4.9 °F /  -15.1 °C 4.2 °F /  -15.4 °C 1028.7 in /  34831.8 hPa Calm   1.6 mph /  2.6 km/h 95 % 0.0 in /  0 mm
07:57 5.1 °F /  -14.9 °C 4.4 °F /  -15.3 °C 1028.7 in /  34831.8 hPa Calm   1.6 mph /  2.6 km/h 95 % 0.0 in /  0 mm
08:02 5.3 °F /  -14.8 °C 4.7 °F /  -15.2 °C 1029.0 in /  34841.9 hPa Calm   1.6 mph /  2.6 km/h 96 % 0.0 in /  0 mm
08:12 5.3 °F /  -14.8 °C 4.6 °F /  -15.2 °C 1029.0 in /  34841.9 hPa Calm     95 % 0.0 in /  0 mm
08:17 5.4 °F /  -14.8 °C 4.7 °F /  -15.2 °C 1029.0 in /  34841.9 hPa Calm     95 % 0.0 in /  0 mm
08:22 5.6 °F /  -14.7 °C 4.9 °F /  -15.1 °C 1029.0 in /  34841.9 hPa Calm     95 % 0.0 in /  0 mm
08:27 5.8 °F /  -14.6 °C 5.1 °F /  -14.9 °C 1029.0 in /  34841.9 hPa Calm     95 % 0.0 in /  0 mm
08:32 6.6 °F /  -14.1 °C 6.0 °F /  -14.4 °C 1029.0 in /  34841.9 hPa Calm     96 % 0.0 in /  0 mm
08:42 7.4 °F /  -13.7 °C 6.7 °F /  -14.1 °C 1029.0 in /  34841.9 hPa Calm     95 % 0.0 in /  0 mm
08:52 7.8 °F /  -13.4 °C 6.9 °F /  -13.9 °C 1029.3 in /  34852.1 hPa Calm     94 % 0.0 in /  0 mm
09:02 9.6 °F /  -12.4 °C 8.7 °F /  -12.9 °C 1029.3 in /  34852.1 hPa Calm     94 % 0.0 in /  0 mm
09:12 10.7 °F /  -11.8 °C 9.1 °F /  -12.7 °C 1029.3 in /  34852.1 hPa Calm     90 % 0.0 in /  0 mm
09:17 9.9 °F /  -12.3 °C 7.3 °F /  -13.7 °C 1029.3 in /  34852.1 hPa SE 1.6 mph /  2.6 km/h   84 % 0.0 in /  0 mm
09:22 9.2 °F /  -12.7 °C 6.8 °F /  -14 °C 1029.3 in /  34852.1 hPa ESE 1.6 mph /  2.6 km/h 3.2 mph /  5.1 km/h 85 % 0.0 in /  0 mm
09:27 8.9 °F /  -12.8 °C 6.9 °F /  -13.9 °C 1029.3 in /  34852.1 hPa SE 1.6 mph /  2.6 km/h 3.2 mph /  5.1 km/h 87 % 0.0 in /  0 mm
09:32 8.7 °F /  -12.9 °C 6.8 °F /  -14 °C 1029.3 in /  34852.1 hPa SE 1.6 mph /  2.6 km/h 3.2 mph /  5.1 km/h 88 % 0.0 in /  0 mm
09:37 8.7 °F /  -12.9 °C 7.0 °F /  -13.9 °C 1029.3 in /  34852.1 hPa Calm   3.2 mph /  5.1 km/h 89 % 0.0 in /  0 mm
09:42 8.9 °F /  -12.8 °C 7.2 °F /  -13.8 °C 1029.3 in /  34852.1 hPa Calm   3.2 mph /  5.1 km/h 89 % 0.0 in /  0 mm
09:52 9.9 °F /  -12.3 °C 7.8 °F /  -13.4 °C 1029.3 in /  34852.1 hPa Calm   1.6 mph /  2.6 km/h 87 % 0.0 in /  0 mm
10:02 10.4 °F /  -12 °C 8.2 °F /  -13.2 °C 1029.3 in /  34852.1 hPa Calm     86 % 0.0 in /  0 mm
10:07 10.8 °F /  -11.8 °C 8.4 °F /  -13.1 °C 1029.3 in /  34852.1 hPa Calm     85 % 0.0 in /  0 mm
10:12 11.1 °F /  -11.6 °C 8.5 °F /  -13.1 °C 1029.7 in /  34865.6 hPa Calm     84 % 0.0 in /  0 mm
10:17 11.5 °F /  -11.4 °C 8.9 °F /  -12.8 °C 1029.7 in /  34865.6 hPa Calm     84 % 0.0 in /  0 mm
10:22 11.9 °F /  -11.2 °C 9.1 °F /  -12.7 °C 1029.7 in /  34865.6 hPa Calm     83 % 0.0 in /  0 mm
10:32 12.7 °F /  -10.7 °C 9.5 °F /  -12.5 °C 1029.7 in /  34865.6 hPa SE 1.6 mph /  2.6 km/h   81 % 0.0 in /  0 mm
10:42 13.1 °F /  -10.5 °C 9.2 °F /  -12.7 °C 1029.7 in /  34865.6 hPa Calm   1.6 mph /  2.6 km/h 77 % 0.0 in /  0 mm
10:52 12.9 °F /  -10.6 °C 9.2 °F /  -12.7 °C 1029.7 in /  34865.6 hPa Calm   3.2 mph /  5.1 km/h 78 % 0.0 in /  0 mm
11:02 13.1 °F /  -10.5 °C 9.2 °F /  -12.7 °C 1029.7 in /  34865.6 hPa ESE 1.6 mph /  2.6 km/h 4.8 mph /  7.7 km/h 77 % 0.0 in /  0 mm
11:12 13.6 °F /  -10.2 °C 9.6 °F /  -12.4 °C 1029.7 in /  34865.6 hPa Calm   4.8 mph /  7.7 km/h 77 % 0.0 in /  0 mm
11:17 13.8 °F /  -10.1 °C 9.6 °F /  -12.4 °C 1029.7 in /  34865.6 hPa SE 1.6 mph /  2.6 km/h 4.8 mph /  7.7 km/h 76 % 0.0 in /  0 mm
11:22 14.0 °F /  -10 °C 9.8 °F /  -12.3 °C 1029.7 in /  34865.6 hPa East 1.6 mph /  2.6 km/h 4.8 mph /  7.7 km/h 76 % 0.0 in /  0 mm
11:32 14.8 °F /  -9.6 °C 10.4 °F /  -12 °C 1029.7 in /  34865.6 hPa SE 3.2 mph /  5.1 km/h 4.8 mph /  7.7 km/h 75 % 0.0 in /  0 mm
11:37 15.0 °F /  -9.4 °C 10.4 °F /  -12 °C 1029.7 in /  34865.6 hPa SE 4.8 mph /  7.7 km/h 4.8 mph /  7.7 km/h 74 % 0.0 in /  0 mm
11:42 15.0 °F /  -9.4 °C 10.2 °F /  -12.1 °C 1029.7 in /  34865.6 hPa ESE 4.8 mph /  7.7 km/h 6.4 mph /  10.3 km/h 73 % 0.0 in /  0 mm
11:47 15.2 °F /  -9.3 °C 10.6 °F /  -11.9 °C 1029.7 in /  34865.6 hPa ESE 1.6 mph /  2.6 km/h 6.4 mph /  10.3 km/h 74 % 0.0 in /  0 mm
11:52 15.7 °F /  -9.1 °C 10.2 °F /  -12.1 °C 1029.7 in /  34865.6 hPa SE 4.8 mph /  7.7 km/h 6.4 mph /  10.3 km/h 70 % 0.0 in /  0 mm
12:02 16.1 °F /  -8.8 °C 10.2 °F /  -12.1 °C 1029.7 in /  34865.6 hPa SSE 4.8 mph /  7.7 km/h 6.4 mph /  10.3 km/h 68 % 0.0 in /  0 mm
12:07 16.3 °F /  -8.7 °C 10.2 °F /  -12.1 °C 1029.7 in /  34865.6 hPa SSE 1.6 mph /  2.6 km/h 6.4 mph /  10.3 km/h 67 % 0.0 in /  0 mm
12:12 16.4 °F /  -8.7 °C 10.3 °F /  -12.1 °C 1029.7 in /  34865.6 hPa ESE 4.8 mph /  7.7 km/h 6.4 mph /  10.3 km/h 67 % 0.0 in /  0 mm
12:17 16.3 °F /  -8.7 °C 9.9 °F /  -12.3 °C 1029.7 in /  34865.6 hPa Calm   6.4 mph /  10.3 km/h 66 % 0.0 in /  0 mm
12:22 16.6 °F /  -8.6 °C 10.2 °F /  -12.1 °C 1029.7 in /  34865.6 hPa SSE 1.6 mph /  2.6 km/h 6.4 mph /  10.3 km/h 66 % 0.0 in /  0 mm
12:32 16.8 °F /  -8.4 °C 9.0 °F /  -12.8 °C 1029.3 in /  34852.1 hPa SSW 3.2 mph /  5.1 km/h 6.4 mph /  10.3 km/h 60 % 0.0 in /  0 mm
12:37 16.9 °F /  -8.4 °C 9.3 °F /  -12.6 °C 1029.3 in /  34852.1 hPa South 4.8 mph /  7.7 km/h 9.7 mph /  15.6 km/h 61 % 0.0 in /  0 mm
12:42 17.2 °F /  -8.2 °C 9.1 °F /  -12.7 °C 1029.3 in /  34852.1 hPa SSW 1.6 mph /  2.6 km/h 9.7 mph /  15.6 km/h 59 % 0.0 in /  0 mm
12:47 17.3 °F /  -8.2 °C 9.0 °F /  -12.8 °C 1029.3 in /  34852.1 hPa SW 1.6 mph /  2.6 km/h 9.7 mph /  15.6 km/h 58 % 0.0 in /  0 mm
12:52 17.3 °F /  -8.2 °C 9.5 °F /  -12.5 °C 1029.3 in /  34852.1 hPa SW 3.2 mph /  5.1 km/h 6.4 mph /  10.3 km/h 60 % 0.0 in /  0 mm
13:02 17.4 °F /  -8.1 °C 9.8 °F /  -12.3 °C 1029.0 in /  34841.9 hPa SSE 6.4 mph /  10.3 km/h 6.4 mph /  10.3 km/h 61 % 0.0 in /  0 mm
13:07 17.4 °F /  -8.1 °C 9.6 °F /  -12.4 °C 1029.0 in /  34841.9 hPa SSW 4.8 mph /  7.7 km/h 6.4 mph /  10.3 km/h 60 % 0.0 in /  0 mm
13:17 17.5 °F /  -8.1 °C 9.4 °F /  -12.6 °C 1029.0 in /  34841.9 hPa ESE 4.8 mph /  7.7 km/h 9.7 mph /  15.6 km/h 59 % 0.0 in /  0 mm
13:22 17.7 °F /  -7.9 °C 9.3 °F /  -12.6 °C 1029.0 in /  34841.9 hPa SE 4.8 mph /  7.7 km/h 11.3 mph /  18.2 km/h 58 % 0.0 in /  0 mm
13:32 17.5 °F /  -8.1 °C 8.4 °F /  -13.1 °C 1028.7 in /  34831.8 hPa SSW 3.2 mph /  5.1 km/h 9.7 mph /  15.6 km/h 55 % 0.0 in /  0 mm
13:37 17.8 °F /  -7.9 °C 8.9 °F /  -12.8 °C 1028.7 in /  34831.8 hPa WSW 1.6 mph /  2.6 km/h 9.7 mph /  15.6 km/h 56 % 0.0 in /  0 mm
13:42 18.0 °F /  -7.8 °C 8.6 °F /  -13 °C 1028.7 in /  34831.8 hPa SSW 4.8 mph /  7.7 km/h 9.7 mph /  15.6 km/h 54 % 0.0 in /  0 mm
13:52 18.4 °F /  -7.6 °C 7.8 °F /  -13.4 °C 1028.7 in /  34831.8 hPa SSE 3.2 mph /  5.1 km/h 8.0 mph /  12.9 km/h 50 % 0.0 in /  0 mm
13:57 18.4 °F /  -7.6 °C 6.9 °F /  -13.9 °C 1028.7 in /  34831.8 hPa SW 3.2 mph /  5.1 km/h 8.0 mph /  12.9 km/h 47 % 0.0 in /  0 mm
14:02 18.5 °F /  -7.5 °C 7.6 °F /  -13.6 °C 1028.7 in /  34831.8 hPa WSW 3.2 mph /  5.1 km/h 8.0 mph /  12.9 km/h 49 % 0.0 in /  0 mm
14:12 18.6 °F /  -7.4 °C 6.4 °F /  -14.2 °C 1028.7 in /  34831.8 hPa SSW 4.8 mph /  7.7 km/h 8.0 mph /  12.9 km/h 45 % 0.0 in /  0 mm
14:17 18.4 °F /  -7.6 °C 7.8 °F /  -13.4 °C 1028.7 in /  34831.8 hPa SSW 6.4 mph /  10.3 km/h 8.0 mph /  12.9 km/h 50 % 0.0 in /  0 mm
14:22 18.5 °F /  -7.5 °C 6.7 °F /  -14.1 °C 1028.7 in /  34831.8 hPa Calm   11.3 mph /  18.2 km/h 46 % 0.0 in /  0 mm
14:32 18.9 °F /  -7.3 °C 8.0 °F /  -13.3 °C 1028.3 in /  34818.2 hPa ENE 3.2 mph /  5.1 km/h 11.3 mph /  18.2 km/h 49 % 0.0 in /  0 mm
14:37 18.9 °F /  -7.3 °C 8.2 °F /  -13.2 °C 1028.3 in /  34818.2 hPa Calm   8.0 mph /  12.9 km/h 50 % 0.0 in /  0 mm
14:42 19.0 °F /  -7.2 °C 7.4 °F /  -13.7 °C 1028.0 in /  34808.1 hPa East 6.4 mph /  10.3 km/h 8.0 mph /  12.9 km/h 47 % 0.0 in /  0 mm
14:52 18.8 °F /  -7.3 °C 7.6 °F /  -13.6 °C 1028.0 in /  34808.1 hPa East 4.8 mph /  7.7 km/h 9.7 mph /  15.6 km/h 48 % 0.0 in /  0 mm
14:57 18.9 °F /  -7.3 °C 6.7 °F /  -14.1 °C 1028.0 in /  34808.1 hPa SSW 4.8 mph /  7.7 km/h 9.7 mph /  15.6 km/h 45 % 0.0 in /  0 mm
15:02 19.0 °F /  -7.2 °C 7.1 °F /  -13.8 °C 1028.0 in /  34808.1 hPa NE 4.8 mph /  7.7 km/h 9.7 mph /  15.6 km/h 46 % 0.0 in /  0 mm
15:12 19.2 °F /  -7.1 °C 7.3 °F /  -13.7 °C 1027.7 in /  34797.9 hPa SSW 4.8 mph /  7.7 km/h 9.7 mph /  15.6 km/h 46 % 0.0 in /  0 mm
15:17 19.3 °F /  -7.1 °C 7.4 °F /  -13.7 °C 1027.7 in /  34797.9 hPa SE 3.2 mph /  5.1 km/h 4.8 mph /  7.7 km/h 46 % 0.0 in /  0 mm
15:22 19.1 °F /  -7.2 °C 7.2 °F /  -13.8 °C 1027.7 in /  34797.9 hPa SE 4.8 mph /  7.7 km/h 9.7 mph /  15.6 km/h 46 % 0.0 in /  0 mm
15:27 19.2 °F /  -7.1 °C 7.3 °F /  -13.7 °C 1027.7 in /  34797.9 hPa South 4.8 mph /  7.7 km/h 9.7 mph /  15.6 km/h 46 % 0.0 in /  0 mm
15:32 19.3 °F /  -7.1 °C 7.1 °F /  -13.8 °C 1027.7 in /  34797.9 hPa SSE 3.2 mph /  5.1 km/h 9.7 mph /  15.6 km/h 45 % 0.0 in /  0 mm
15:42 19.1 °F /  -7.2 °C 7.2 °F /  -13.8 °C 1027.7 in /  34797.9 hPa WNW 3.2 mph /  5.1 km/h 11.3 mph /  18.2 km/h 46 % 0.0 in /  0 mm
15:47 19.2 °F /  -7.1 °C 6.7 °F /  -14.1 °C 1027.3 in /  34784.4 hPa WSW 6.4 mph /  10.3 km/h 11.3 mph /  18.2 km/h 44 % 0.0 in /  0 mm
15:52 18.9 °F /  -7.3 °C 7.0 °F /  -13.9 °C 1027.3 in /  34784.4 hPa SSW 3.2 mph /  5.1 km/h 12.9 mph /  20.8 km/h 46 % 0.0 in /  0 mm
15:57 19.3 °F /  -7.1 °C 7.4 °F /  -13.7 °C 1027.3 in /  34784.4 hPa ESE 4.8 mph /  7.7 km/h 12.9 mph /  20.8 km/h 46 % 0.0 in /  0 mm
16:02 19.5 °F /  -6.9 °C 6.9 °F /  -13.9 °C 1027.3 in /  34784.4 hPa South 6.4 mph /  10.3 km/h 12.9 mph /  20.8 km/h 44 % 0.0 in /  0 mm
16:12 19.3 °F /  -7.1 °C 6.7 °F /  -14.1 °C 1027.0 in /  34774.2 hPa WSW 3.2 mph /  5.1 km/h 9.7 mph /  15.6 km/h 44 % 0.0 in /  0 mm
16:17 19.3 °F /  -7.1 °C 6.7 °F /  -14.1 °C 1027.0 in /  34774.2 hPa SW 9.7 mph /  15.6 km/h 11.3 mph /  18.2 km/h 44 % 0.0 in /  0 mm
16:22 19.4 °F /  -7 °C 6.5 °F /  -14.2 °C 1027.0 in /  34774.2 hPa SSE 4.8 mph /  7.7 km/h 11.3 mph /  18.2 km/h 43 % 0.0 in /  0 mm
16:32 19.9 °F /  -6.7 °C 6.9 °F /  -13.9 °C 1027.0 in /  34774.2 hPa WSW 1.6 mph /  2.6 km/h 11.3 mph /  18.2 km/h 43 % 0.0 in /  0 mm
16:42 20.2 °F /  -6.6 °C 6.5 °F /  -14.2 °C 1026.6 in /  34760.7 hPa NNE 1.6 mph /  2.6 km/h 6.4 mph /  10.3 km/h 41 % 0.0 in /  0 mm
16:47 20.5 °F /  -6.4 °C 6.8 °F /  -14 °C 1026.6 in /  34760.7 hPa SSE 1.6 mph /  2.6 km/h 4.8 mph /  7.7 km/h 41 % 0.0 in /  0 mm
16:52 20.6 °F /  -6.3 °C 7.6 °F /  -13.6 °C 1026.6 in /  34760.7 hPa Calm   4.8 mph /  7.7 km/h 43 % 0.0 in /  0 mm
16:57 20.6 °F /  -6.3 °C 6.5 °F /  -14.2 °C 1026.6 in /  34760.7 hPa WSW 4.8 mph /  7.7 km/h 4.8 mph /  7.7 km/h 40 % 0.0 in /  0 mm
17:02 20.2 °F /  -6.6 °C 6.9 °F /  -13.9 °C 1026.6 in /  34760.7 hPa Calm   4.8 mph /  7.7 km/h 42 % 0.0 in /  0 mm
17:12 19.8 °F /  -6.8 °C 6.5 °F /  -14.2 °C 1026.3 in /  34750.5 hPa WSW 4.8 mph /  7.7 km/h 6.4 mph /  10.3 km/h 42 % 0.0 in /  0 mm
17:17 19.9 °F /  -6.7 °C 6.9 °F /  -13.9 °C 1026.3 in /  34750.5 hPa West 1.6 mph /  2.6 km/h 9.7 mph /  15.6 km/h 43 % 0.0 in /  0 mm
17:22 20.1 °F /  -6.6 °C 7.1 °F /  -13.8 °C 1026.3 in /  34750.5 hPa Calm   9.7 mph /  15.6 km/h 43 % 0.0 in /  0 mm
17:32 20.1 °F /  -6.6 °C 7.5 °F /  -13.6 °C 1026.3 in /  34750.5 hPa Calm   8.0 mph /  12.9 km/h 44 % 0.0 in /  0 mm
17:42 20.1 °F /  -6.6 °C 7.8 °F /  -13.4 °C 1026.3 in /  34750.5 hPa Calm   4.8 mph /  7.7 km/h 45 % 0.0 in /  0 mm
17:52 20.2 °F /  -6.6 °C 7.6 °F /  -13.6 °C 1026.3 in /  34750.5 hPa Calm   4.8 mph /  7.7 km/h 44 % 0.0 in /  0 mm
17:57 20.3 °F /  -6.5 °C 8.0 °F /  -13.3 °C 1026.0 in /  34740.4 hPa Calm   4.8 mph /  7.7 km/h 45 % 0.0 in /  0 mm
18:02 20.2 °F /  -6.6 °C 7.6 °F /  -13.6 °C 1026.3 in /  34750.5 hPa Calm   6.4 mph /  10.3 km/h 44 % 0.0 in /  0 mm
18:12 20.0 °F /  -6.7 °C 7.4 °F /  -13.7 °C 1026.0 in /  34740.4 hPa NNW 1.6 mph /  2.6 km/h 6.4 mph /  10.3 km/h 44 % 0.0 in /  0 mm
18:17 20.2 °F /  -6.6 °C 7.6 °F /  -13.6 °C 1026.0 in /  34740.4 hPa NW 1.6 mph /  2.6 km/h 4.8 mph /  7.7 km/h 44 % 0.0 in /  0 mm
18:22 20.2 °F /  -6.6 °C 7.9 °F /  -13.4 °C 1026.0 in /  34740.4 hPa WNW 3.2 mph /  5.1 km/h 4.8 mph /  7.7 km/h 45 % 0.0 in /  0 mm
18:32 20.1 °F /  -6.6 °C 8.1 °F /  -13.3 °C 1026.0 in /  34740.4 hPa West 1.6 mph /  2.6 km/h 4.8 mph /  7.7 km/h 46 % 0.0 in /  0 mm
18:42 19.8 °F /  -6.8 °C 7.8 °F /  -13.4 °C 1026.0 in /  34740.4 hPa West 1.6 mph /  2.6 km/h 9.7 mph /  15.6 km/h 46 % 0.0 in /  0 mm
18:52 19.7 °F /  -6.8 °C 7.8 °F /  -13.4 °C 1026.0 in /  34740.4 hPa West 1.6 mph /  2.6 km/h 9.7 mph /  15.6 km/h 46 % 0.0 in /  0 mm
19:02 19.8 °F /  -6.8 °C 7.8 °F /  -13.4 °C 1026.3 in /  34750.5 hPa West 1.6 mph /  2.6 km/h 8.0 mph /  12.9 km/h 46 % 0.0 in /  0 mm
19:12 19.8 °F /  -6.8 °C 8.2 °F /  -13.2 °C 1026.3 in /  34750.5 hPa Calm   6.4 mph /  10.3 km/h 47 % 0.0 in /  0 mm
19:17 19.9 °F /  -6.7 °C 8.3 °F /  -13.2 °C 1026.3 in /  34750.5 hPa Calm   6.4 mph /  10.3 km/h 47 % 0.0 in /  0 mm
19:22 19.5 °F /  -6.9 °C 7.9 °F /  -13.4 °C 1026.3 in /  34750.5 hPa Calm   6.4 mph /  10.3 km/h 47 % 0.0 in /  0 mm
19:32 19.2 °F /  -7.1 °C 7.6 °F /  -13.6 °C 1026.3 in /  34750.5 hPa Calm   1.6 mph /  2.6 km/h 47 % 0.0 in /  0 mm
19:42 18.9 °F /  -7.3 °C 7.6 °F /  -13.6 °C 1026.3 in /  34750.5 hPa Calm     48 % 0.0 in /  0 mm
19:52 18.4 °F /  -7.6 °C 7.5 °F /  -13.6 °C 1026.3 in /  34750.5 hPa Calm     49 % 0.0 in /  0 mm
19:57 18.3 °F /  -7.6 °C 7.4 °F /  -13.7 °C 1026.3 in /  34750.5 hPa Calm     49 % 0.0 in /  0 mm
20:02 18.1 °F /  -7.7 °C 7.5 °F /  -13.6 °C 1026.3 in /  34750.5 hPa Calm     50 % 0.0 in /  0 mm
20:07 17.9 °F /  -7.8 °C 7.3 °F /  -13.7 °C 1026.3 in /  34750.5 hPa Calm     50 % 0.0 in /  0 mm
20:12 17.8 °F /  -7.9 °C 7.2 °F /  -13.8 °C 1026.3 in /  34750.5 hPa Calm     50 % 0.0 in /  0 mm
20:17 17.7 °F /  -7.9 °C 7.4 °F /  -13.7 °C 1026.3 in /  34750.5 hPa Calm     51 % 0.0 in /  0 mm
20:22 17.5 °F /  -8.1 °C 7.5 °F /  -13.6 °C 1026.3 in /  34750.5 hPa Calm     52 % 0.0 in /  0 mm
20:27 17.3 °F /  -8.2 °C 7.6 °F /  -13.6 °C 1026.3 in /  34750.5 hPa Calm     53 % 0.0 in /  0 mm
20:32 17.0 °F /  -8.3 °C 7.3 °F /  -13.7 °C 1026.6 in /  34760.7 hPa Calm     53 % 0.0 in /  0 mm
20:42 16.3 °F /  -8.7 °C 7.8 °F /  -13.4 °C 1026.6 in /  34760.7 hPa North 1.6 mph /  2.6 km/h   57 % 0.0 in /  0 mm
20:52 15.9 °F /  -8.9 °C 7.4 °F /  -13.7 °C 1026.6 in /  34760.7 hPa Calm   3.2 mph /  5.1 km/h 57 % 0.0 in /  0 mm
20:57 15.7 °F /  -9.1 °C 7.5 °F /  -13.6 °C 1026.6 in /  34760.7 hPa Calm   3.2 mph /  5.1 km/h 58 % 0.0 in /  0 mm
21:02 15.6 °F /  -9.1 °C 7.4 °F /  -13.7 °C 1026.6 in /  34760.7 hPa NNW 1.6 mph /  2.6 km/h 1.6 mph /  2.6 km/h 58 % 0.0 in /  0 mm
21:07 15.5 °F /  -9.2 °C 7.3 °F /  -13.7 °C 1026.6 in /  34760.7 hPa NNW 1.6 mph /  2.6 km/h 3.2 mph /  5.1 km/h 58 % 0.0 in /  0 mm
21:17 15.3 °F /  -9.3 °C 7.6 °F /  -13.6 °C 1027.0 in /  34774.2 hPa Calm   3.2 mph /  5.1 km/h 60 % 0.0 in /  0 mm
21:22 15.1 °F /  -9.4 °C 7.4 °F /  -13.7 °C 1027.0 in /  34774.2 hPa NNW 1.6 mph /  2.6 km/h 1.6 mph /  2.6 km/h 60 % 0.0 in /  0 mm
21:32 14.8 °F /  -9.6 °C 7.4 °F /  -13.7 °C 1027.0 in /  34774.2 hPa NNW 1.6 mph /  2.6 km/h 1.6 mph /  2.6 km/h 61 % 0.0 in /  0 mm
21:42 14.6 °F /  -9.7 °C 7.2 °F /  -13.8 °C 1027.0 in /  34774.2 hPa North 1.6 mph /  2.6 km/h 3.2 mph /  5.1 km/h 61 % 0.0 in /  0 mm
21:47 14.3 °F /  -9.8 °C 7.1 °F /  -13.8 °C 1027.0 in /  34774.2 hPa NNW 1.6 mph /  2.6 km/h 4.8 mph /  7.7 km/h 62 % 0.0 in /  0 mm
21:52 14.1 °F /  -9.9 °C 7.2 °F /  -13.8 °C 1027.0 in /  34774.2 hPa Calm   4.8 mph /  7.7 km/h 63 % 0.0 in /  0 mm
21:57 14.1 °F /  -9.9 °C 6.9 °F /  -13.9 °C 1027.0 in /  34774.2 hPa North 1.6 mph /  2.6 km/h 4.8 mph /  7.7 km/h 62 % 0.0 in /  0 mm
22:02 13.8 °F /  -10.1 °C 6.6 °F /  -14.1 °C 1027.0 in /  34774.2 hPa NNW 3.2 mph /  5.1 km/h 3.2 mph /  5.1 km/h 62 % 0.0 in /  0 mm
22:12 13.1 °F /  -10.5 °C 6.9 °F /  -13.9 °C 1027.0 in /  34774.2 hPa WNW 1.6 mph /  2.6 km/h 3.2 mph /  5.1 km/h 66 % 0.0 in /  0 mm
22:22 12.9 °F /  -10.6 °C 6.5 °F /  -14.2 °C 1027.3 in /  34784.4 hPa Calm   3.2 mph /  5.1 km/h 65 % 0.0 in /  0 mm
22:27 13.0 °F /  -10.6 °C 6.8 °F /  -14 °C 1027.3 in /  34784.4 hPa Calm   1.6 mph /  2.6 km/h 66 % 0.0 in /  0 mm
22:32 12.8 °F /  -10.7 °C 6.6 °F /  -14.1 °C 1027.3 in /  34784.4 hPa Calm   1.6 mph /  2.6 km/h 66 % 0.0 in /  0 mm
22:42 12.3 °F /  -10.9 °C 6.8 °F /  -14 °C 1027.3 in /  34784.4 hPa WNW 1.6 mph /  2.6 km/h 1.6 mph /  2.6 km/h 69 % 0.0 in /  0 mm
22:47 12.2 °F /  -11 °C 7.1 °F /  -13.8 °C 1027.3 in /  34784.4 hPa WNW 1.6 mph /  2.6 km/h 1.6 mph /  2.6 km/h 71 % 0.0 in /  0 mm
22:52 12.0 °F /  -11.1 °C 7.3 °F /  -13.7 °C 1027.3 in /  34784.4 hPa Calm   1.6 mph /  2.6 km/h 73 % 0.0 in /  0 mm
22:57 11.9 °F /  -11.2 °C 7.4 °F /  -13.7 °C 1027.3 in /  34784.4 hPa WNW 1.6 mph /  2.6 km/h 1.6 mph /  2.6 km/h 74 % 0.0 in /  0 mm
23:02 11.9 °F /  -11.2 °C 7.4 °F /  -13.7 °C 1027.3 in /  34784.4 hPa WNW 1.6 mph /  2.6 km/h 1.6 mph /  2.6 km/h 74 % 0.0 in /  0 mm
23:12 12.4 °F /  -10.9 °C 6.4 °F /  -14.2 °C 1027.3 in /  34784.4 hPa Calm   1.6 mph /  2.6 km/h 67 % 0.0 in /  0 mm
23:17 12.4 °F /  -10.9 °C 6.4 °F /  -14.2 °C 1027.3 in /  34784.4 hPa Calm   1.6 mph /  2.6 km/h 67 % 0.0 in /  0 mm
23:22 12.3 °F /  -10.9 °C 6.3 °F /  -14.3 °C 1027.3 in /  34784.4 hPa Calm   1.6 mph /  2.6 km/h 67 % 0.0 in /  0 mm
23:32 12.0 °F /  -11.1 °C 6.3 °F /  -14.3 °C 1027.3 in /  34784.4 hPa North 1.6 mph /  2.6 km/h 1.6 mph /  2.6 km/h 68 % 0.0 in /  0 mm
23:37 12.1 °F /  -11.1 °C 6.4 °F /  -14.2 °C 1027.3 in /  34784.4 hPa Calm   1.6 mph /  2.6 km/h 68 % 0.0 in /  0 mm
23:42 12.1 °F /  -11.1 °C 6.6 °F /  -14.1 °C 1027.3 in /  34784.4 hPa North 1.6 mph /  2.6 km/h 1.6 mph /  2.6 km/h 69 % 0.0 in /  0 mm
23:47 12.2 °F /  -11 °C 6.7 °F /  -14.1 °C 1027.3 in /  34784.4 hPa North 1.6 mph /  2.6 km/h 1.6 mph /  2.6 km/h 69 % 0.0 in /  0 mm
23:52 12.3 °F /  -10.9 °C 6.6 °F /  -14.1 °C 1027.3 in /  34784.4 hPa Calm   3.2 mph /  5.1 km/h 68 % 0.0 in /  0 mm
23:57 12.3 °F /  -10.9 °C 6.6 °F /  -14.1 °C 1027.3 in /  34784.4 hPa NNW 1.6 mph /  2.6 km/h 3.2 mph /  5.1 km/h 68 % 0.0 in /  0 mm
Meteo18
Compliments of Weather Underground - 4 mb

Script developed by  Jim McMurry - jmcmurry@mwt.net Adapted for the template by  Wim van der Kuil - Leuven-Template.eu

You find our weather info also at:

European Weather Network

Weather Underground

Equipment we use:

Weather-station
Davis Vue

Weather-program
Meteobridge

Weather-server
Raspberry PI 2 B+

Provider
1 and 1

Davis Vue

Meteobridge

Raspberry PI 2 B+

1 and 1